Time;durP1;ratioP1;P1;durP2;ratioP2;P2;SDS_P1;SDS_P2;PMS_P1;PMS_P2;Temp;Humidity;BMP_temperature;BMP_pressure;BME280_temperature;BME280_humidity;BME280_pressure;Samples;Min_cycle;Max_cycle;Signal;HPM_P1;HPM_P2
2021/12/24 00:01:07;;;;;;;7.50;5.53;;;7.50;1.00;;;;;;5034682;28;20430;-75
2021/12/24 00:03:33;;;;;;;17.50;5.90;;;7.60;1.00;;;;;;5034173;28;20928;-75
2021/12/24 00:06:00;;;;;;;9.90;6.10;;;7.60;1.00;;;;;;5035316;28;20420;-75
2021/12/24 00:08:25;;;;;;;9.60;6.03;;;7.60;1.00;;;;;;5033796;28;20801;-75
2021/12/24 00:10:59;;;;;;;7.77;5.50;;;7.60;1.00;;;;;;5034917;28;20419;-75
2021/12/24 00:13:26;;;;;;;9.97;6.00;;;7.50;1.00;;;;;;5034689;28;20188;-75
2021/12/24 00:16:07;;;;;;;14.53;6.77;;;7.50;1.00;;;;;;5034910;28;20473;-75
2021/12/24 00:37:06;;;;;;;11.10;6.73;;;7.30;1.00;;;;;;5034606;28;20526;-75
2021/12/24 00:39:35;;;;;;;15.43;6.63;;;7.30;1.00;;;;;;5034539;28;20518;-75
2021/12/24 00:42:02;;;;;;;11.50;6.47;;;7.30;1.00;;;;;;5033327;28;20521;-75
2021/12/24 00:44:28;;;;;;;16.00;7.33;;;7.30;1.00;;;;;;5034280;28;20449;-74
2021/12/24 00:46:53;;;;;;;10.90;5.77;;;7.30;1.00;;;;;;5034399;28;20423;-75
2021/12/24 00:49:19;;;;;;;12.60;7.10;;;7.30;1.00;;;;;;5034234;28;20622;-75
2021/12/24 00:57:14;;;;;;;12.60;6.70;;;7.30;1.00;;;;;;5024736;28;20955;-75
2021/12/24 00:59:41;;;;;;;12.03;6.93;;;7.40;1.00;;;;;;5033802;28;20502;-75
2021/12/24 01:02:07;;;;;;;9.50;6.23;;;7.40;1.00;;;;;;5033994;28;20235;-75
2021/12/24 01:04:33;;;;;;;11.53;6.57;;;7.40;1.00;;;;;;5033571;28;20842;-75
2021/12/24 01:06:58;;;;;;;18.30;7.07;;;7.40;1.00;;;;;;5034129;28;20207;-75
2021/12/24 01:09:29;;;;;;;10.70;6.80;;;7.40;1.00;;;;;;5033813;28;20187;-75
2021/12/24 01:11:55;;;;;;;11.50;6.40;;;7.40;1.00;;;;;;5033195;28;20172;-75
2021/12/24 01:14:22;;;;;;;12.87;6.87;;;7.40;1.00;;;;;;5033789;28;20442;-75
2021/12/24 01:19:33;;;;;;;10.20;6.10;;;7.40;1.00;;;;;;5033811;28;20813;-75
2021/12/24 01:24:33;;;;;;;16.20;6.80;;;7.50;1.00;;;;;;5032840;28;20430;-75
2021/12/24 01:27:12;;;;;;;11.40;6.90;;;7.40;1.00;;;;;;5033410;28;20222;-75
2021/12/24 01:29:44;;;;;;;14.43;6.57;;;7.50;1.00;;;;;;5033550;28;20431;-75
2021/12/24 01:37:58;;;;;;;10.13;6.30;;;7.50;1.00;;;;;;5033445;28;20422;-75
2021/12/24 01:40:39;;;;;;;14.20;6.80;;;7.60;1.00;;;;;;5033124;28;20454;-75
2021/12/24 01:43:05;;;;;;;15.30;6.83;;;7.60;1.00;;;;;;5033110;28;20419;-75
2021/12/24 01:45:35;;;;;;;11.20;6.57;;;7.70;1.00;;;;;;5033258;28;20462;-75
2021/12/24 01:48:05;;;;;;;14.40;6.17;;;7.80;1.00;;;;;;5033385;28;20414;-75
2021/12/24 01:50:33;;;;;;;11.83;6.10;;;7.80;1.00;;;;;;5033001;28;20928;-75
2021/12/24 01:53:01;;;;;;;14.00;6.23;;;7.80;1.00;;;;;;5033225;28;20423;-75
2021/12/24 01:55:27;;;;;;;8.57;6.00;;;7.80;1.00;;;;;;5032446;28;20435;-75
2021/12/24 01:57:53;;;;;;;12.30;6.77;;;7.80;1.00;;;;;;5030567;28;20467;-75
2021/12/24 02:00:23;;;;;;;12.77;6.60;;;7.90;1.00;;;;;;5033474;28;20905;-75
2021/12/24 02:02:49;;;;;;;8.60;5.80;;;7.90;1.00;;;;;;5032595;28;20192;-75
2021/12/24 02:05:16;;;;;;;9.40;6.10;;;8.00;1.00;;;;;;5032965;28;20470;-75
2021/12/24 02:07:41;;;;;;;8.60;5.23;;;8.00;1.00;;;;;;5032958;28;20411;-75
2021/12/24 02:10:10;;;;;;;10.60;6.30;;;8.00;1.00;;;;;;5032713;28;20450;-75
2021/12/24 02:12:36;;;;;;;9.07;5.50;;;8.00;1.00;;;;;;5032381;28;20218;-75
2021/12/24 02:15:05;;;;;;;15.13;6.40;;;8.10;1.00;;;;;;5032994;28;20427;-75
2021/12/24 02:28:39;;;;;;;9.60;5.23;;;8.00;1.00;;;;;;4991444;28;20424;-75
2021/12/24 02:31:13;;;;;;;8.03;5.60;;;8.00;1.00;;;;;;4991281;28;20927;-75
2021/12/24 02:33:40;;;;;;;8.87;5.70;;;8.00;1.00;;;;;;4988014;28;21307;-75
2021/12/24 02:36:07;;;;;;;9.83;5.50;;;8.00;1.00;;;;;;4990983;28;20974;-75
2021/12/24 02:38:33;;;;;;;10.60;6.03;;;8.00;1.00;;;;;;4991229;28;20423;-75
2021/12/24 02:40:59;;;;;;;11.27;5.57;;;8.00;1.00;;;;;;4990291;28;20955;-75
2021/12/24 02:43:25;;;;;;;7.57;5.30;;;8.00;1.00;;;;;;4991105;28;20503;-75
2021/12/24 02:45:56;;;;;;;10.47;5.90;;;8.00;1.00;;;;;;4991127;28;20480;-75
2021/12/24 02:56:26;;;;;;;6.90;4.90;;;8.00;1.00;;;;;;4993760;28;20436;-75
2021/12/24 02:58:52;;;;;;;9.47;5.53;;;8.00;1.00;;;;;;5032505;28;20462;-75
2021/12/24 03:01:23;;;;;;;8.07;4.80;;;8.00;1.00;;;;;;5032870;28;20422;-75
2021/12/24 03:03:50;;;;;;;7.23;5.17;;;8.00;1.00;;;;;;5032085;28;20900;-75
2021/12/24 03:06:27;;;;;;;10.63;5.23;;;8.50;1.00;;;;;;5032060;28;20462;-75
2021/12/24 03:08:54;;;;;;;8.90;5.20;;;8.10;1.00;;;;;;5032314;28;20766;-75
2021/12/24 03:11:20;;;;;;;10.87;5.20;;;8.00;1.00;;;;;;5029424;28;20415;-75
2021/12/24 03:13:47;;;;;;;12.20;5.87;;;8.10;1.00;;;;;;5032363;28;20786;-75
2021/12/24 03:16:13;;;;;;;9.27;5.40;;;8.10;1.00;;;;;;5027095;28;20423;-75
2021/12/24 03:18:42;;;;;;;9.00;5.80;;;8.10;1.00;;;;;;5032495;28;20418;-75
2021/12/24 03:21:22;;;;;;;5.93;4.40;;;8.10;1.00;;;;;;5032450;28;20183;-75
2021/12/24 03:26:35;;;;;;;8.33;4.70;;;8.10;1.00;;;;;;5031393;28;20791;-75
2021/12/24 03:29:03;;;;;;;9.37;5.60;;;8.00;1.00;;;;;;5027585;28;20422;-75
2021/12/24 03:31:29;;;;;;;9.93;5.53;;;8.00;1.00;;;;;;5023558;28;20787;-75
2021/12/24 03:33:55;;;;;;;12.90;6.03;;;8.00;1.00;;;;;;5032250;28;20418;-75
2021/12/24 03:36:22;;;;;;;6.10;4.43;;;8.00;1.00;;;;;;5034588;28;20363;-75
2021/12/24 03:38:48;;;;;;;9.50;5.50;;;8.00;1.00;;;;;;5035666;28;20265;-75
2021/12/24 03:41:15;;;;;;;7.37;5.03;;;8.00;1.00;;;;;;5035124;28;20446;-75
2021/12/24 03:43:40;;;;;;;8.70;4.67;;;8.00;1.00;;;;;;5035626;28;20451;-75
2021/12/24 03:46:14;;;;;;;11.90;6.00;;;8.00;1.00;;;;;;5033972;28;20538;-74
2021/12/24 03:57:04;;;;;;;6.57;4.60;;;7.90;1.00;;;;;;4958223;28;20877;-75
2021/12/24 03:59:29;;;;;;;10.40;5.23;;;7.80;1.00;;;;;;4941404;29;20435;-75
2021/12/24 04:01:55;;;;;;;7.20;5.17;;;7.80;1.00;;;;;;4955089;29;20422;-75
2021/12/24 04:04:21;;;;;;;10.13;4.73;;;7.70;1.00;;;;;;4954222;29;21278;-75
2021/12/24 04:06:47;;;;;;;5.97;4.40;;;7.80;1.00;;;;;;4954364;29;20211;-75
2021/12/24 04:09:13;;;;;;;7.60;3.97;;;7.80;1.00;;;;;;4954505;28;20669;-75
2021/12/24 04:11:40;;;;;;;10.33;5.00;;;7.80;1.00;;;;;;4954419;29;20442;-75
2021/12/24 04:14:06;;;;;;;9.70;4.90;;;7.90;1.00;;;;;;4954806;29;20431;-75
2021/12/24 04:16:32;;;;;;;5.30;3.70;;;7.80;1.00;;;;;;4954763;29;20885;-75
2021/12/24 04:19:18;;;;;;;4.83;4.07;;;7.80;1.00;;;;;;4954235;29;20505;-75
2021/12/24 04:27:12;;;;;;;7.33;4.67;;;7.80;1.00;;;;;;4954119;29;20519;-75
2021/12/24 04:29:37;;;;;;;3.87;3.40;;;7.80;1.00;;;;;;4963762;28;20523;-75
2021/12/24 04:32:11;;;;;;;9.87;4.60;;;7.90;1.00;;;;;;5031762;28;20647;-75
2021/12/24 04:34:38;;;;;;;7.00;4.30;;;7.90;1.00;;;;;;5034792;28;20177;-75
2021/12/24 05:03:41;;;;;;;6.63;4.20;;;8.30;1.00;;;;;;5024662;28;20438;-75
2021/12/24 05:08:54;;;;;;;7.43;4.03;;;8.30;1.00;;;;;;5033563;28;20427;-75
2021/12/24 05:11:21;;;;;;;7.10;4.10;;;8.40;1.00;;;;;;5033804;28;20454;-75
2021/12/24 05:13:53;;;;;;;4.03;3.53;;;8.40;1.00;;;;;;5032494;28;20768;-75
2021/12/24 05:16:37;;;;;;;6.70;4.03;;;8.80;1.00;;;;;;5027347;28;20434;-76
2021/12/24 05:21:44;;;;;;;6.67;3.90;;;8.50;1.00;;;;;;5034148;28;20414;-75
2021/12/24 05:24:14;;;;;;;4.70;3.60;;;8.50;1.00;;;;;;5032629;28;20253;-75
2021/12/24 05:26:42;;;;;;;7.07;4.23;;;8.50;1.00;;;;;;5032142;28;20981;-75
2021/12/24 05:29:08;;;;;;;4.60;3.60;;;8.60;1.00;;;;;;5033017;28;20790;-75
2021/12/24 05:31:35;;;;;;;8.33;4.23;;;8.60;1.00;;;;;;5033606;28;20423;-75
2021/12/24 05:34:01;;;;;;;5.30;3.97;;;8.60;1.00;;;;;;5033662;28;20184;-75
2021/12/24 05:36:27;;;;;;;6.13;3.90;;;8.60;1.00;;;;;;5032406;28;20422;-75
2021/12/24 05:38:53;;;;;;;5.20;3.90;;;8.70;1.00;;;;;;5032762;28;20427;-75
2021/12/24 05:41:21;;;;;;;5.60;3.60;;;8.70;1.00;;;;;;5033555;28;20440;-75
2021/12/24 05:43:47;;;;;;;4.17;3.70;;;8.70;1.00;;;;;;5032334;28;20423;-75
2021/12/24 05:46:13;;;;;;;6.13;4.17;;;9.50;1.00;;;;;;5032674;28;20557;-75
2021/12/24 05:48:39;;;;;;;5.90;3.83;;;8.70;1.00;;;;;;5032764;28;21012;-75
2021/12/24 05:51:04;;;;;;;3.93;3.40;;;8.70;1.00;;;;;;5033397;28;20226;-75
2021/12/24 05:53:30;;;;;;;5.60;3.57;;;8.70;1.00;;;;;;5032732;28;20191;-75
2021/12/24 05:55:56;;;;;;;3.50;3.20;;;8.70;1.00;;;;;;5033107;28;20184;-75
2021/12/24 05:58:23;;;;;;;5.40;3.77;;;8.70;1.00;;;;;;5032534;28;20184;-75
2021/12/24 06:00:50;;;;;;;8.70;5.00;;;8.70;1.00;;;;;;5032938;28;20639;-75
2021/12/24 06:03:16;;;;;;;6.97;4.33;;;8.70;1.00;;;;;;5032420;28;20433;-75
2021/12/24 06:05:43;;;;;;;5.77;4.30;;;8.70;1.00;;;;;;5032558;28;20470;-75
2021/12/24 06:08:08;;;;;;;7.70;4.30;;;8.70;1.00;;;;;;5032580;28;20496;-75
2021/12/24 06:10:35;;;;;;;7.87;4.63;;;8.60;1.00;;;;;;5031333;28;20917;-75
2021/12/24 06:13:02;;;;;;;15.50;4.87;;;8.60;1.00;;;;;;5032769;28;20191;-75
2021/12/24 06:15:27;;;;;;;11.83;5.33;;;8.60;1.00;;;;;;5032445;28;20521;-75
2021/12/24 06:17:56;;;;;;;9.90;5.20;;;8.60;1.00;;;;;;5032317;28;20492;-76
2021/12/24 06:20:24;;;;;;;8.63;5.40;;;8.60;1.00;;;;;;5028261;28;20180;-75
2021/12/24 06:22:50;;;;;;;11.20;5.47;;;8.70;1.00;;;;;;5032987;28;20422;-75
2021/12/24 06:25:18;;;;;;;8.47;4.87;;;8.70;1.00;;;;;;5031772;28;20788;-76
2021/12/24 06:27:48;;;;;;;8.73;4.77;;;8.70;1.00;;;;;;5031268;28;20423;-75
2021/12/24 06:30:17;;;;;;;7.83;4.80;;;8.60;1.00;;;;;;5031798;28;20768;-75
2021/12/24 06:32:45;;;;;;;11.30;5.60;;;8.60;1.00;;;;;;5032228;28;20921;-74
2021/12/24 06:35:11;;;;;;;10.23;5.27;;;8.60;1.00;;;;;;5032603;28;20431;-75
2021/12/24 06:37:43;;;;;;;11.67;6.03;;;8.60;1.00;;;;;;5032738;28;20415;-75
2021/12/24 06:40:09;;;;;;;8.10;5.63;;;8.60;1.00;;;;;;5032387;28;20401;-75
2021/12/24 06:42:35;;;;;;;9.93;5.20;;;8.60;1.00;;;;;;5031447;28;20430;-75
2021/12/24 06:45:01;;;;;;;8.37;5.27;;;8.60;1.00;;;;;;5032351;28;20486;-75
2021/12/24 06:47:33;;;;;;;7.90;5.40;;;8.60;1.00;;;;;;5032516;28;20168;-75
2021/12/24 06:49:58;;;;;;;10.53;6.20;;;8.50;1.00;;;;;;5032191;28;20423;-75
2021/12/24 06:52:24;;;;;;;17.30;5.10;;;8.60;1.00;;;;;;5032482;28;20955;-75
2021/12/24 06:54:50;;;;;;;9.80;5.43;;;8.60;1.00;;;;;;5031567;28;20230;-75
2021/12/24 06:57:18;;;;;;;18.93;5.80;;;8.60;1.00;;;;;;5030228;28;20176;-75
2021/12/24 06:59:44;;;;;;;10.63;6.17;;;8.60;1.00;;;;;;5032350;28;20560;-75
2021/12/24 07:02:09;;;;;;;7.50;5.10;;;8.60;1.00;;;;;;5032710;28;20407;-75
2021/12/24 07:04:36;;;;;;;8.03;5.33;;;;;;;;;;5032693;28;20438;-75
2021/12/24 07:07:02;;;;;;;7.43;5.57;;;8.60;1.00;;;;;;5031153;28;20238;-80
2021/12/24 07:09:27;;;;;;;5.63;4.57;;;8.60;1.00;;;;;;5031728;28;20459;-75
2021/12/24 07:11:53;;;;;;;9.13;5.53;;;8.60;1.00;;;;;;5034582;28;20184;-75
2021/12/24 07:14:19;;;;;;;10.40;6.40;;;8.50;1.00;;;;;;5036068;28;20624;-75
2021/12/24 07:16:45;;;;;;;9.70;5.80;;;8.60;1.00;;;;;;5035575;28;20541;-75
2021/12/24 07:19:10;;;;;;;10.67;5.73;;;8.60;1.00;;;;;;5035938;28;20557;-76
2021/12/24 07:21:36;;;;;;;7.80;5.20;;;8.60;1.00;;;;;;5034441;28;20172;-76
2021/12/24 07:24:06;;;;;;;8.90;5.10;;;8.70;1.00;;;;;;5023262;28;20585;-75
2021/12/24 07:26:32;;;;;;;10.40;5.87;;;8.70;1.00;;;;;;5035336;28;20579;-75
2021/12/24 07:28:58;;;;;;;7.00;4.80;;;8.70;1.00;;;;;;5034940;28;20473;-75
2021/12/24 07:31:23;;;;;;;7.20;4.83;;;8.70;1.00;;;;;;5033007;28;20952;-75
2021/12/24 07:33:49;;;;;;;10.83;5.83;;;8.70;1.00;;;;;;5033256;28;20665;-75
2021/12/24 07:36:15;;;;;;;10.40;5.20;;;8.70;1.00;;;;;;5034467;28;20564;-75
2021/12/24 07:38:41;;;;;;;9.60;5.10;;;8.60;1.00;;;;;;5034942;28;20430;-75
2021/12/24 07:41:07;;;;;;;7.27;4.60;;;;;;;;;;5028773;28;20192;-76
2021/12/24 07:43:33;;;;;;;10.93;4.67;;;8.70;1.00;;;;;;5034924;28;20229;-75
2021/12/24 07:45:59;;;;;;;8.73;4.57;;;8.70;1.00;;;;;;5037438;28;20489;-76
2021/12/24 07:48:29;;;;;;;6.13;4.40;;;8.80;1.00;;;;;;5034670;28;20423;-77
2021/12/24 07:53:24;;;;;;;6.90;4.20;;;8.70;1.00;;;;;;5033749;28;20838;-77
2021/12/24 07:55:50;;;;;;;10.03;4.87;;;9.20;1.00;;;;;;5033886;28;20451;-76
2021/12/24 07:58:17;;;;;;;7.00;5.13;;;8.80;1.00;;;;;;5037003;28;20503;-76
2021/12/24 08:00:44;;;;;;;7.83;4.23;;;8.80;1.00;;;;;;5028426;28;20416;-76
2021/12/24 08:03:10;;;;;;;6.63;4.20;;;8.90;1.00;;;;;;5042718;28;20411;-76
2021/12/24 08:05:39;;;;;;;7.83;5.10;;;11.50;1.00;;;;;;5035073;28;20947;-76
2021/12/24 08:08:06;;;;;;;7.90;4.47;;;8.90;1.00;;;;;;5033454;28;20485;-76
2021/12/24 08:10:34;;;;;;;8.00;4.60;;;8.90;1.00;;;;;;5033944;28;20817;-77
2021/12/24 08:13:03;;;;;;;8.83;4.57;;;9.00;1.00;;;;;;5038551;28;20768;-76
2021/12/24 08:15:29;;;;;;;10.47;5.70;;;9.00;1.00;;;;;;5034047;28;20486;-76
2021/12/24 08:17:54;;;;;;;14.03;4.43;;;9.10;1.00;;;;;;5033883;28;20422;-76
2021/12/24 08:20:24;;;;;;;6.10;4.17;;;9.10;1.00;;;;;;5032924;28;20173;-76
2021/12/24 08:22:52;;;;;;;8.37;4.90;;;9.10;1.00;;;;;;5033495;28;20639;-76
2021/12/24 08:25:19;;;;;;;13.90;5.53;;;9.10;1.00;;;;;;5032591;28;20435;-76
2021/12/24 08:27:45;;;;;;;9.40;5.77;;;11.00;1.00;;;;;;5035693;28;20433;-76
2021/12/24 08:30:11;;;;;;;7.63;4.90;;;9.10;1.00;;;;;;5038954;28;20462;-77
2021/12/24 08:32:40;;;;;;;6.20;4.50;;;9.10;1.00;;;;;;5033504;28;20882;-76
2021/12/24 08:35:08;;;;;;;9.20;5.53;;;9.00;1.00;;;;;;5034018;28;20239;-76
2021/12/24 08:37:34;;;;;;;11.73;5.37;;;9.00;1.00;;;;;;5025778;28;21045;-76
2021/12/24 08:39:59;;;;;;;5.63;3.97;;;9.00;1.00;;;;;;5031966;28;20482;-76
2021/12/24 08:42:25;;;;;;;6.40;4.20;;;9.00;1.00;;;;;;5031401;28;20184;-77
2021/12/24 08:44:51;;;;;;;7.13;4.70;;;9.00;1.00;;;;;;5032733;28;20182;-76
2021/12/24 08:47:17;;;;;;;6.17;3.97;;;9.00;1.00;;;;;;5033281;28;20265;-78
2021/12/24 08:49:43;;;;;;;4.87;3.77;;;9.00;1.00;;;;;;5047249;28;20910;-83
2021/12/24 08:52:08;;;;;;;12.70;3.93;;;9.10;1.00;;;;;;5042790;28;20210;-76
2021/12/24 08:54:34;;;;;;;8.37;4.70;;;;;;;;;;5038460;28;20505;-80
2021/12/24 08:57:00;;;;;;;7.77;4.93;;;9.00;1.00;;;;;;5033499;28;20527;-78
2021/12/24 08:59:25;;;;;;;8.47;4.90;;;9.00;1.00;;;;;;5032506;28;20431;-75
2021/12/24 09:02:11;;;;;;;5.03;3.33;;;9.10;1.00;;;;;;5032461;28;20203;-76
2021/12/24 09:04:42;;;;;;;10.27;4.20;;;9.10;1.00;;;;;;5043413;28;20171;-75
2021/12/24 09:07:35;;;;;;;12.10;4.57;;;9.20;1.00;;;;;;5040310;28;20478;-75
2021/12/24 09:10:02;;;;;;;5.00;4.00;;;9.30;1.00;;;;;;5029990;28;20419;-75
2021/12/24 09:12:28;;;;;;;5.77;4.37;;;9.40;1.00;;;;;;5038408;28;20418;-76
2021/12/24 09:15:30;;;;;;;6.43;3.57;;;9.30;1.00;;;;;;5038439;28;20839;-75
2021/12/24 09:18:03;;;;;;;8.90;4.13;;;9.40;1.00;;;;;;5027365;28;20176;-78
2021/12/24 09:20:36;;;;;;;10.07;3.63;;;9.50;1.00;;;;;;5032960;28;20948;-77
2021/12/24 09:23:02;;;;;;;5.57;4.10;;;9.60;1.00;;;;;;5032382;28;20845;-76
2021/12/24 09:25:29;;;;;;;6.03;4.00;;;9.80;1.00;;;;;;5032466;28;20477;-75
2021/12/24 09:27:56;;;;;;;5.80;3.83;;;9.80;1.00;;;;;;5028549;28;20423;-77
2021/12/24 09:30:22;;;;;;;3.20;2.90;;;9.90;1.00;;;;;;5032487;28;20478;-76
2021/12/24 09:32:48;;;;;;;7.57;4.17;;;9.90;1.00;;;;;;5032161;28;20450;-76
2021/12/24 09:35:14;;;;;;;7.93;3.63;;;;;;;;;;5029691;28;20450;-75
2021/12/24 09:37:41;;;;;;;6.47;3.83;;;9.90;1.00;;;;;;5031786;28;20433;-76
2021/12/24 09:40:11;;;;;;;5.67;3.90;;;10.30;1.00;;;;;;5033030;28;20442;-76
2021/12/24 09:42:37;;;;;;;10.37;4.40;;;10.00;1.00;;;;;;5033319;28;21003;-76
2021/12/24 09:45:04;;;;;;;4.83;3.87;;;10.00;1.00;;;;;;5030875;28;20498;-76
2021/12/24 09:47:30;;;;;;;7.10;3.80;;;10.10;1.00;;;;;;5032879;28;20172;-76
2021/12/24 09:49:56;;;;;;;5.50;4.07;;;10.10;1.00;;;;;;5033045;28;20430;-74
2021/12/24 09:52:22;;;;;;;6.13;3.47;;;;;;;;;;5032635;28;20176;-76
2021/12/24 09:54:53;;;;;;;4.40;3.17;;;10.10;1.00;;;;;;5031183;28;20172;-75
2021/12/24 09:57:19;;;;;;;3.43;2.93;;;10.10;1.00;;;;;;5027316;28;20427;-75
2021/12/24 09:59:46;;;;;;;3.43;3.07;;;10.20;1.00;;;;;;5032525;28;20441;-75
2021/12/24 10:02:17;;;;;;;4.73;3.47;;;10.20;1.00;;;;;;5031432;28;20828;-75
2021/12/24 10:04:44;;;;;;;4.27;3.70;;;10.20;1.00;;;;;;5031963;28;20969;-76
2021/12/24 10:07:13;;;;;;;5.83;3.27;;;10.20;1.00;;;;;;5032869;28;20427;-74
2021/12/24 10:09:41;;;;;;;3.43;3.03;;;10.40;1.00;;;;;;5027941;28;20457;-76
2021/12/24 10:12:17;;;;;;;6.07;3.47;;;10.90;1.00;;;;;;5032579;28;20423;-76
2021/12/24 10:14:52;;;;;;;3.67;3.07;;;10.40;1.00;;;;;;5032515;28;20507;-76
2021/12/24 10:17:21;;;;;;;6.53;3.77;;;10.50;1.00;;;;;;5032585;28;20429;-76
2021/12/24 10:19:53;;;;;;;4.87;3.37;;;10.40;1.00;;;;;;5032802;28;20385;-76
2021/12/24 10:22:21;;;;;;;4.63;3.13;;;11.00;1.00;;;;;;5032586;28;20477;-76
2021/12/24 10:25:09;;;;;;;5.73;3.83;;;11.20;1.00;;;;;;5032276;28;20420;-76
2021/12/24 10:27:35;;;;;;;3.33;3.03;;;10.50;1.00;;;;;;5031169;28;20514;-74
2021/12/24 10:30:13;;;;;;;3.90;3.03;;;10.60;1.00;;;;;;5031944;28;20815;-76
2021/12/24 10:32:39;;;;;;;8.47;3.77;;;10.60;1.00;;;;;;5032216;28;20465;-76
2021/12/24 10:35:22;;;;;;;9.47;3.77;;;10.70;1.00;;;;;;5032854;28;20457;-76
2021/12/24 10:38:11;;;;;;;5.30;3.93;;;10.60;1.00;;;;;;5032481;28;20415;-76
2021/12/24 10:41:06;;;;;;;5.07;3.43;;;10.60;1.00;;;;;;5027377;28;20568;-76
2021/12/24 10:43:34;;;;;;;7.50;4.10;;;10.60;1.00;;;;;;5030325;28;20786;-79
2021/12/24 10:46:09;;;;;;;12.83;4.20;;;10.70;1.00;;;;;;5022672;28;20439;-79
2021/12/24 10:48:35;;;;;;;7.00;4.60;;;10.50;1.00;;;;;;5035294;28;20426;-78
2021/12/24 10:51:08;;;;;;;9.83;4.80;;;10.90;1.00;;;;;;5036974;28;20941;-78
2021/12/24 10:54:06;;;;;;;5.87;4.33;;;10.50;1.00;;;;;;5034733;28;20188;-79
2021/12/24 10:56:31;;;;;;;6.17;3.93;;;10.50;1.00;;;;;;5035050;28;20541;-77
2021/12/24 10:58:57;;;;;;;4.30;3.90;;;10.50;1.00;;;;;;5036079;28;20956;-77
2021/12/24 11:01:23;;;;;;;8.10;5.23;;;10.40;1.00;;;;;;5035118;28;20267;-77
2021/12/24 11:03:49;;;;;;;9.30;4.50;;;10.50;1.00;;;;;;5034285;28;20175;-78
2021/12/24 11:06:19;;;;;;;6.67;4.27;;;10.40;1.00;;;;;;5035528;28;20180;-76
2021/12/24 11:08:53;;;;;;;7.30;3.90;;;10.40;1.00;;;;;;5023274;28;20696;-76
2021/12/24 11:11:20;;;;;;;5.00;3.67;;;10.40;1.00;;;;;;5035998;28;20448;-76
2021/12/24 11:14:18;;;;;;;7.50;4.07;;;10.40;1.00;;;;;;5037206;28;20413;-75
2021/12/24 11:16:54;;;;;;;8.77;4.27;;;;;;;;;;5031925;28;20454;-75
2021/12/24 11:19:28;;;;;;;4.60;3.43;;;10.20;1.00;;;;;;5036717;28;20492;-75
2021/12/24 11:22:04;;;;;;;5.70;3.70;;;10.20;1.00;;;;;;5036546;28;20909;-75
2021/12/24 11:24:36;;;;;;;6.07;4.17;;;10.20;1.00;;;;;;5036971;28;20453;-75
2021/12/24 11:27:02;;;;;;;6.20;4.10;;;10.20;1.00;;;;;;5037120;28;20847;-76
2021/12/24 11:29:27;;;;;;;7.83;3.87;;;10.10;1.00;;;;;;5037288;28;20561;-74
2021/12/24 11:31:54;;;;;;;4.03;3.43;;;10.20;1.00;;;;;;5036839;28;20184;-75
2021/12/24 11:34:20;;;;;;;11.93;4.10;;;10.20;1.00;;;;;;5036750;28;20210;-76
2021/12/24 11:37:11;;;;;;;5.27;4.00;;;10.60;1.00;;;;;;5024101;28;20422;-76
2021/12/24 11:39:42;;;;;;;4.27;3.53;;;10.20;1.00;;;;;;5035480;28;20433;-76
2021/12/24 11:42:10;;;;;;;7.70;3.93;;;10.20;1.00;;;;;;5016835;28;20910;-76
2021/12/24 11:44:36;;;;;;;3.53;3.23;;;12.30;1.00;;;;;;5033136;28;20418;-77
2021/12/24 11:47:06;;;;;;;5.87;3.90;;;10.20;1.00;;;;;;5036534;28;20596;-76
2021/12/24 11:52:59;;;;;;;7.00;3.90;;;10.30;1.00;;;;;;5036767;28;20487;-76
2021/12/24 11:55:48;;;;;;;7.67;3.90;;;10.30;1.00;;;;;;5035715;28;20744;-76
2021/12/24 11:58:25;;;;;;;6.53;4.10;;;10.40;1.00;;;;;;5036324;28;20391;-76
2021/12/24 12:00:55;;;;;;;4.60;3.60;;;10.30;1.00;;;;;;5035982;28;20992;-76
2021/12/24 12:03:39;;;;;;;5.93;4.13;;;10.40;1.00;;;;;;5036154;28;20421;-77
2021/12/24 12:06:10;;;;;;;8.50;3.67;;;10.40;1.00;;;;;;5027705;28;20479;-76
2021/12/24 12:08:39;;;;;;;7.87;4.10;;;10.50;1.00;;;;;;5034525;28;20832;-76
2021/12/24 12:11:21;;;;;;;9.33;4.40;;;10.50;1.00;;;;;;5034577;28;20806;-76
2021/12/24 12:13:55;;;;;;;8.73;3.90;;;10.50;1.00;;;;;;5036125;28;20443;-76
2021/12/24 12:17:11;;;;;;;14.40;3.30;;;10.50;1.00;;;;;;5035658;28;20937;-77
2021/12/24 12:19:58;;;;;;;5.43;3.40;;;10.50;1.00;;;;;;5035533;28;20422;-76
2021/12/24 12:25:32;;;;;;;6.07;3.93;;;10.60;1.00;;;;;;5035866;28;20403;-76
2021/12/24 12:32:05;;;;;;;9.03;4.13;;;10.80;1.00;;;;;;5035347;28;20996;-76
2021/12/24 12:35:11;;;;;;;5.90;3.40;;;10.80;1.00;;;;;;5035376;28;20425;-76
2021/12/24 12:37:56;;;;;;;4.30;3.73;;;10.90;1.00;;;;;;5029390;28;20454;-75
2021/12/24 12:40:21;;;;;;;9.33;4.47;;;10.80;1.00;;;;;;5023426;28;20541;-75
2021/12/24 12:42:57;;;;;;;4.80;3.50;;;10.90;1.00;;;;;;5034147;28;20514;-78
2021/12/24 12:45:32;;;;;;;4.70;3.07;;;11.00;1.00;;;;;;5034355;28;20192;-76
2021/12/24 12:48:00;;;;;;;3.77;3.17;;;11.00;1.00;;;;;;5034292;28;20418;-76
2021/12/24 12:50:27;;;;;;;5.47;3.30;;;10.70;1.00;;;;;;5032212;28;20865;-76
2021/12/24 12:53:37;;;;;;;7.33;3.60;;;10.70;1.00;;;;;;5034361;28;20713;-76
2021/12/24 12:56:31;;;;;;;5.33;3.60;;;10.60;1.00;;;;;;5025478;28;20430;-76
2021/12/24 12:59:07;;;;;;;9.30;4.00;;;10.60;1.00;;;;;;5031692;28;20793;-77
2021/12/24 13:01:47;;;;;;;5.50;3.50;;;10.60;1.00;;;;;;5029431;28;20427;-76
2021/12/24 13:04:14;;;;;;;4.80;3.37;;;10.40;1.00;;;;;;5034076;28;20416;-76
2021/12/24 13:06:41;;;;;;;4.20;3.30;;;10.50;1.00;;;;;;5034035;28;20816;-77
2021/12/24 13:09:12;;;;;;;6.10;4.23;;;10.50;1.00;;;;;;5033054;28;20422;-77
2021/12/24 13:11:44;;;;;;;8.10;4.20;;;10.50;1.00;;;;;;5033899;28;20411;-78
2021/12/24 13:14:11;;;;;;;4.37;3.57;;;10.50;1.00;;;;;;5033953;28;20508;-77
2021/12/24 13:16:55;;;;;;;4.57;3.77;;;10.50;1.00;;;;;;5033645;28;20488;-77
2021/12/24 13:22:28;;;;;;;7.43;3.80;;;10.70;1.00;;;;;;5011975;28;20871;-75
2021/12/24 13:25:14;;;;;;;6.30;3.70;;;10.70;1.00;;;;;;5011743;28;20422;-76
2021/12/24 13:28:07;;;;;;;4.33;3.73;;;10.60;1.00;;;;;;5011132;28;20436;-76
2021/12/24 13:30:35;;;;;;;4.20;3.20;;;10.60;1.00;;;;;;5007543;28;20432;-77
2021/12/24 13:33:07;;;;;;;5.20;3.13;;;10.50;1.00;;;;;;5009088;28;20955;-78
2021/12/24 13:35:42;;;;;;;5.20;3.57;;;10.50;1.00;;;;;;5007793;28;20423;-77
2021/12/24 13:38:27;;;;;;;6.73;3.30;;;10.50;1.00;;;;;;5011858;28;20511;-76
2021/12/24 13:40:54;;;;;;;5.07;3.50;;;10.40;1.00;;;;;;4994313;28;21050;-74
2021/12/24 13:43:24;;;;;;;4.97;3.10;;;10.40;1.00;;;;;;5011260;28;20540;-75
2021/12/24 13:45:52;;;;;;;5.10;3.30;;;10.30;1.00;;;;;;5010490;28;21040;-76
2021/12/24 13:48:25;;;;;;;4.87;3.43;;;10.30;1.00;;;;;;5004306;28;20421;-75
2021/12/24 13:56:51;;;;;;;5.43;3.60;;;10.20;1.00;;;;;;5005059;28;20462;-75
2021/12/24 13:59:24;;;;;;;4.43;3.43;;;10.10;1.00;;;;;;5026451;28;20435;-75
2021/12/24 14:01:50;;;;;;;3.97;3.07;;;10.10;1.00;;;;;;5032673;28;20518;-75
2021/12/24 14:04:18;;;;;;;4.50;2.73;;;9.90;1.00;;;;;;5032981;28;20501;-78
2021/12/24 14:06:48;;;;;;;5.03;3.03;;;9.90;1.00;;;;;;5032774;28;20798;-76
2021/12/24 14:09:22;;;;;;;4.83;3.40;;;9.90;1.00;;;;;;5025806;28;20450;-76
2021/12/24 14:11:52;;;;;;;5.53;3.50;;;9.90;1.00;;;;;;5029044;28;20392;-76
2021/12/24 14:14:28;;;;;;;5.00;3.13;;;9.90;1.00;;;;;;5032864;28;20410;-77
2021/12/24 14:19:50;;;;;;;5.67;3.57;;;10.00;1.00;;;;;;5032636;28;20732;-76
2021/12/24 14:22:18;;;;;;;3.43;3.13;;;10.00;1.00;;;;;;5032761;28;20508;-77
2021/12/24 14:24:55;;;;;;;7.20;3.60;;;9.90;1.00;;;;;;5031378;28;20506;-77
2021/12/24 14:27:28;;;;;;;3.20;2.90;;;9.80;1.00;;;;;;5032105;28;20455;-78
2021/12/24 14:29:59;;;;;;;3.07;2.77;;;9.90;1.00;;;;;;5030407;28;20427;-77
2021/12/24 14:32:33;;;;;;;6.23;3.80;;;9.90;1.00;;;;;;5032015;28;20415;-77
2021/12/24 14:35:15;;;;;;;5.57;2.83;;;9.90;1.00;;;;;;5032691;28;20410;-77
2021/12/24 14:37:59;;;;;;;15.00;3.43;;;9.90;1.00;;;;;;5032704;28;20415;-81
2021/12/24 14:40:27;;;;;;;3.20;2.67;;;9.80;1.00;;;;;;5031465;28;20434;-79
2021/12/24 14:42:54;;;;;;;3.80;3.03;;;9.80;1.00;;;;;;5032301;28;20434;-78
2021/12/24 14:45:22;;;;;;;3.03;2.73;;;9.80;1.00;;;;;;5032491;28;20616;-78
2021/12/24 14:48:27;;;;;;;5.20;2.83;;;9.80;1.00;;;;;;5032412;28;20423;-78
2021/12/24 14:51:00;;;;;;;4.10;2.90;;;9.80;1.00;;;;;;5007124;28;20474;-76
2021/12/24 14:54:04;;;;;;;3.83;2.60;;;9.80;1.00;;;;;;5009751;28;20478;-77
2021/12/24 14:56:37;;;;;;;4.23;3.23;;;9.80;1.00;;;;;;5011193;28;20529;-77
2021/12/24 14:59:24;;;;;;;2.73;2.53;;;9.70;1.00;;;;;;5010029;28;20446;-83
2021/12/24 15:08:48;;;;;;;2.97;2.67;;;9.80;1.00;;;;;;5010505;28;20419;-76
2021/12/24 15:11:35;;;;;;;2.90;2.60;;;9.80;1.00;;;;;;5011295;28;20949;-76
2021/12/24 15:14:53;;;;;;;4.70;2.93;;;9.80;1.00;;;;;;5010101;28;20520;-76
2021/12/24 15:17:40;;;;;;;3.10;2.70;;;9.80;1.00;;;;;;5009783;28;20915;-76
2021/12/24 15:20:20;;;;;;;7.53;3.20;;;9.70;1.00;;;;;;5011052;28;20431;-76
2021/12/24 15:22:56;;;;;;;3.17;2.70;;;9.70;1.00;;;;;;5010963;28;20439;-76
2021/12/24 15:25:32;;;;;;;4.00;2.67;;;9.70;1.00;;;;;;5010983;28;20542;-76
2021/12/24 15:28:41;;;;;;;4.03;2.97;;;9.70;1.00;;;;;;5023106;28;20534;-76
2021/12/24 15:31:13;;;;;;;2.00;1.90;;;9.60;1.00;;;;;;5015982;28;20860;-76
2021/12/24 15:33:43;;;;;;;4.63;3.20;;;9.60;1.00;;;;;;5027729;28;20418;-76
2021/12/24 15:36:10;;;;;;;36.07;15.97;;;9.60;1.00;;;;;;5023937;28;20462;-76